sensor_id;sensor_type;location;lat;lon;timestamp;P1;durP1;ratioP1;P2;durP2;ratioP2
42200;SDS011;27869;51.442;7.540;2023-08-08T00:01:57;5.13;;;1.30;;
42200;SDS011;27869;51.442;7.540;2023-08-08T00:04:24;6.07;;;1.20;;
42200;SDS011;27869;51.442;7.540;2023-08-08T00:06:51;4.53;;;1.27;;
42200;SDS011;27869;51.442;7.540;2023-08-08T00:09:17;6.57;;;1.33;;
42200;SDS011;27869;51.442;7.540;2023-08-08T00:11:44;6.68;;;1.50;;
42200;SDS011;27869;51.442;7.540;2023-08-08T00:14:11;7.18;;;1.50;;
42200;SDS011;27869;51.442;7.540;2023-08-08T00:16:39;5.78;;;1.38;;
42200;SDS011;27869;51.442;7.540;2023-08-08T00:19:06;6.70;;;1.55;;
42200;SDS011;27869;51.442;7.540;2023-08-08T00:21:33;6.20;;;1.40;;
42200;SDS011;27869;51.442;7.540;2023-08-08T00:24:00;6.35;;;1.38;;
42200;SDS011;27869;51.442;7.540;2023-08-08T00:26:27;5.35;;;1.33;;
42200;SDS011;27869;51.442;7.540;2023-08-08T00:28:54;5.28;;;1.55;;
42200;SDS011;27869;51.442;7.540;2023-08-08T00:31:21;6.55;;;1.40;;
42200;SDS011;27869;51.442;7.540;2023-08-08T00:33:49;6.85;;;1.60;;
42200;SDS011;27869;51.442;7.540;2023-08-08T00:36:16;5.95;;;1.45;;
42200;SDS011;27869;51.442;7.540;2023-08-08T00:38:43;5.70;;;1.45;;
42200;SDS011;27869;51.442;7.540;2023-08-08T00:41:10;5.72;;;1.20;;
42200;SDS011;27869;51.442;7.540;2023-08-08T00:43:36;4.00;;;1.13;;
42200;SDS011;27869;51.442;7.540;2023-08-08T00:46:03;6.90;;;1.50;;
42200;SDS011;27869;51.442;7.540;2023-08-08T00:48:30;6.32;;;1.40;;
42200;SDS011;27869;51.442;7.540;2023-08-08T00:50:59;6.03;;;1.40;;
42200;SDS011;27869;51.442;7.540;2023-08-08T00:53:26;4.97;;;1.50;;
42200;SDS011;27869;51.442;7.540;2023-08-08T00:55:56;10.07;;;1.60;;
42200;SDS011;27869;51.442;7.540;2023-08-08T00:58:24;6.63;;;1.20;;
42200;SDS011;27869;51.442;7.540;2023-08-08T01:00:51;7.07;;;1.33;;
42200;SDS011;27869;51.442;7.540;2023-08-08T01:03:19;6.65;;;1.30;;
42200;SDS011;27869;51.442;7.540;2023-08-08T01:05:48;6.80;;;1.55;;
42200;SDS011;27869;51.442;7.540;2023-08-08T01:08:22;5.97;;;1.45;;
42200;SDS011;27869;51.442;7.540;2023-08-08T01:10:52;4.68;;;1.20;;
42200;SDS011;27869;51.442;7.540;2023-08-08T01:13:20;3.42;;;1.23;;
42200;SDS011;27869;51.442;7.540;2023-08-08T01:15:49;4.85;;;1.23;;
42200;SDS011;27869;51.442;7.540;2023-08-08T01:18:17;5.93;;;1.45;;
42200;SDS011;27869;51.442;7.540;2023-08-08T01:20:45;6.93;;;1.30;;
42200;SDS011;27869;51.442;7.540;2023-08-08T01:23:14;5.57;;;1.17;;
42200;SDS011;27869;51.442;7.540;2023-08-08T01:25:46;4.43;;;1.30;;
42200;SDS011;27869;51.442;7.540;2023-08-08T01:28:15;5.43;;;1.25;;
42200;SDS011;27869;51.442;7.540;2023-08-08T01:30:43;5.60;;;1.20;;
42200;SDS011;27869;51.442;7.540;2023-08-08T01:33:10;6.55;;;1.30;;
42200;SDS011;27869;51.442;7.540;2023-08-08T01:35:37;7.90;;;1.40;;
42200;SDS011;27869;51.442;7.540;2023-08-08T01:38:09;6.30;;;1.40;;
42200;SDS011;27869;51.442;7.540;2023-08-08T01:40:39;8.45;;;1.45;;
42200;SDS011;27869;51.442;7.540;2023-08-08T01:43:10;4.60;;;1.25;;
42200;SDS011;27869;51.442;7.540;2023-08-08T01:45:37;3.75;;;1.08;;
42200;SDS011;27869;51.442;7.540;2023-08-08T01:48:08;4.97;;;1.10;;
42200;SDS011;27869;51.442;7.540;2023-08-08T01:50:35;6.75;;;1.40;;
42200;SDS011;27869;51.442;7.540;2023-08-08T01:53:03;5.93;;;1.10;;
42200;SDS011;27869;51.442;7.540;2023-08-08T01:55:30;7.25;;;1.30;;
42200;SDS011;27869;51.442;7.540;2023-08-08T01:57:57;7.15;;;1.20;;
42200;SDS011;27869;51.442;7.540;2023-08-08T02:00:24;4.30;;;1.20;;
42200;SDS011;27869;51.442;7.540;2023-08-08T02:02:52;7.43;;;1.27;;
42200;SDS011;27869;51.442;7.540;2023-08-08T02:05:19;5.22;;;1.15;;
42200;SDS011;27869;51.442;7.540;2023-08-08T02:07:46;6.75;;;1.25;;
42200;SDS011;27869;51.442;7.540;2023-08-08T02:10:12;3.75;;;1.23;;
42200;SDS011;27869;51.442;7.540;2023-08-08T02:12:39;6.85;;;1.20;;
42200;SDS011;27869;51.442;7.540;2023-08-08T02:15:06;7.10;;;1.10;;
42200;SDS011;27869;51.442;7.540;2023-08-08T02:17:35;5.20;;;1.08;;
42200;SDS011;27869;51.442;7.540;2023-08-08T02:20:04;4.53;;;1.20;;
42200;SDS011;27869;51.442;7.540;2023-08-08T02:22:31;6.32;;;1.13;;
42200;SDS011;27869;51.442;7.540;2023-08-08T02:24:58;6.93;;;1.60;;
42200;SDS011;27869;51.442;7.540;2023-08-08T02:27:25;6.13;;;1.20;;
42200;SDS011;27869;51.442;7.540;2023-08-08T02:29:52;5.80;;;1.40;;
42200;SDS011;27869;51.442;7.540;2023-08-08T02:32:18;6.60;;;1.40;;
42200;SDS011;27869;51.442;7.540;2023-08-08T02:34:47;5.40;;;1.35;;
42200;SDS011;27869;51.442;7.540;2023-08-08T02:37:13;6.10;;;1.38;;
42200;SDS011;27869;51.442;7.540;2023-08-08T02:39:41;7.47;;;1.40;;
42200;SDS011;27869;51.442;7.540;2023-08-08T02:42:07;5.38;;;1.05;;
42200;SDS011;27869;51.442;7.540;2023-08-08T02:44:34;7.32;;;1.20;;
42200;SDS011;27869;51.442;7.540;2023-08-08T02:47:01;5.03;;;1.20;;
42200;SDS011;27869;51.442;7.540;2023-08-08T02:49:28;6.10;;;1.40;;
42200;SDS011;27869;51.442;7.540;2023-08-08T02:51:56;4.57;;;1.23;;
42200;SDS011;27869;51.442;7.540;2023-08-08T02:54:23;6.22;;;1.40;;
42200;SDS011;27869;51.442;7.540;2023-08-08T02:56:50;5.82;;;1.27;;
42200;SDS011;27869;51.442;7.540;2023-08-08T02:59:17;5.18;;;1.20;;
42200;SDS011;27869;51.442;7.540;2023-08-08T03:01:43;6.40;;;1.45;;
42200;SDS011;27869;51.442;7.540;2023-08-08T03:04:12;5.18;;;1.30;;
42200;SDS011;27869;51.442;7.540;2023-08-08T03:06:39;6.70;;;1.55;;
42200;SDS011;27869;51.442;7.540;2023-08-08T03:09:07;4.38;;;1.20;;
42200;SDS011;27869;51.442;7.540;2023-08-08T03:11:34;5.18;;;1.33;;
42200;SDS011;27869;51.442;7.540;2023-08-08T03:14:02;7.97;;;1.40;;
42200;SDS011;27869;51.442;7.540;2023-08-08T03:16:29;3.55;;;1.30;;
42200;SDS011;27869;51.442;7.540;2023-08-08T03:18:56;10.70;;;1.80;;
42200;SDS011;27869;51.442;7.540;2023-08-08T03:21:23;6.97;;;1.63;;
42200;SDS011;27869;51.442;7.540;2023-08-08T03:23:50;6.82;;;1.30;;
42200;SDS011;27869;51.442;7.540;2023-08-08T03:26:18;5.68;;;1.20;;
42200;SDS011;27869;51.442;7.540;2023-08-08T03:28:45;7.95;;;1.63;;
42200;SDS011;27869;51.442;7.540;2023-08-08T03:31:15;5.53;;;1.20;;
42200;SDS011;27869;51.442;7.540;2023-08-08T03:33:42;7.65;;;1.52;;
42200;SDS011;27869;51.442;7.540;2023-08-08T03:36:09;7.75;;;1.40;;
42200;SDS011;27869;51.442;7.540;2023-08-08T03:38:36;8.35;;;1.42;;
42200;SDS011;27869;51.442;7.540;2023-08-08T03:41:03;7.13;;;1.55;;
42200;SDS011;27869;51.442;7.540;2023-08-08T03:43:33;6.97;;;1.50;;
42200;SDS011;27869;51.442;7.540;2023-08-08T03:45:59;4.47;;;1.30;;
42200;SDS011;27869;51.442;7.540;2023-08-08T03:48:26;10.27;;;1.60;;
42200;SDS011;27869;51.442;7.540;2023-08-08T03:50:53;5.97;;;1.33;;
42200;SDS011;27869;51.442;7.540;2023-08-08T03:53:20;9.93;;;1.88;;
42200;SDS011;27869;51.442;7.540;2023-08-08T03:55:47;10.95;;;1.95;;
42200;SDS011;27869;51.442;7.540;2023-08-08T03:58:13;8.52;;;1.75;;
42200;SDS011;27869;51.442;7.540;2023-08-08T04:00:42;8.77;;;1.92;;
42200;SDS011;27869;51.442;7.540;2023-08-08T04:03:12;7.97;;;1.80;;
42200;SDS011;27869;51.442;7.540;2023-08-08T04:05:39;8.15;;;1.85;;
42200;SDS011;27869;51.442;7.540;2023-08-08T04:08:06;7.13;;;1.77;;
42200;SDS011;27869;51.442;7.540;2023-08-08T04:10:32;11.43;;;2.03;;
42200;SDS011;27869;51.442;7.540;2023-08-08T04:12:59;12.32;;;2.38;;
42200;SDS011;27869;51.442;7.540;2023-08-08T04:15:29;8.48;;;2.00;;
42200;SDS011;27869;51.442;7.540;2023-08-08T04:17:57;8.75;;;1.85;;
42200;SDS011;27869;51.442;7.540;2023-08-08T04:20:24;7.32;;;1.73;;
42200;SDS011;27869;51.442;7.540;2023-08-08T04:22:51;9.05;;;1.98;;
42200;SDS011;27869;51.442;7.540;2023-08-08T04:25:18;7.38;;;2.03;;
42200;SDS011;27869;51.442;7.540;2023-08-08T04:27:46;12.38;;;2.20;;
42200;SDS011;27869;51.442;7.540;2023-08-08T04:30:13;9.05;;;2.25;;
42200;SDS011;27869;51.442;7.540;2023-08-08T04:32:40;7.85;;;1.83;;
42200;SDS011;27869;51.442;7.540;2023-08-08T04:35:08;14.57;;;2.20;;
42200;SDS011;27869;51.442;7.540;2023-08-08T04:37:35;9.55;;;2.28;;
42200;SDS011;27869;51.442;7.540;2023-08-08T04:40:02;10.82;;;2.30;;
42200;SDS011;27869;51.442;7.540;2023-08-08T04:42:29;12.70;;;2.45;;
42200;SDS011;27869;51.442;7.540;2023-08-08T04:44:56;12.18;;;2.78;;
42200;SDS011;27869;51.442;7.540;2023-08-08T04:47:23;11.75;;;2.28;;
42200;SDS011;27869;51.442;7.540;2023-08-08T04:49:51;7.03;;;2.00;;
42200;SDS011;27869;51.442;7.540;2023-08-08T04:52:20;8.82;;;2.13;;
42200;SDS011;27869;51.442;7.540;2023-08-08T04:54:47;10.10;;;2.20;;
42200;SDS011;27869;51.442;7.540;2023-08-08T04:57:13;9.88;;;2.30;;
42200;SDS011;27869;51.442;7.540;2023-08-08T04:59:40;9.15;;;2.35;;
42200;SDS011;27869;51.442;7.540;2023-08-08T05:02:07;9.23;;;2.63;;
42200;SDS011;27869;51.442;7.540;2023-08-08T05:04:34;10.52;;;2.20;;
42200;SDS011;27869;51.442;7.540;2023-08-08T05:07:01;10.35;;;2.47;;
42200;SDS011;27869;51.442;7.540;2023-08-08T05:09:29;11.63;;;2.47;;
42200;SDS011;27869;51.442;7.540;2023-08-08T05:11:56;10.45;;;2.33;;
42200;SDS011;27869;51.442;7.540;2023-08-08T05:14:23;9.70;;;2.28;;
42200;SDS011;27869;51.442;7.540;2023-08-08T05:16:50;10.32;;;2.50;;
42200;SDS011;27869;51.442;7.540;2023-08-08T05:19:16;9.68;;;2.67;;
42200;SDS011;27869;51.442;7.540;2023-08-08T05:21:43;14.45;;;2.95;;
42200;SDS011;27869;51.442;7.540;2023-08-08T05:24:10;11.40;;;2.90;;
42200;SDS011;27869;51.442;7.540;2023-08-08T05:26:38;11.65;;;3.00;;
42200;SDS011;27869;51.442;7.540;2023-08-08T05:29:05;12.35;;;2.70;;
42200;SDS011;27869;51.442;7.540;2023-08-08T05:31:32;14.55;;;3.75;;
42200;SDS011;27869;51.442;7.540;2023-08-08T05:33:59;12.40;;;2.88;;
42200;SDS011;27869;51.442;7.540;2023-08-08T05:36:25;12.35;;;3.03;;
42200;SDS011;27869;51.442;7.540;2023-08-08T05:38:52;11.95;;;2.95;;
42200;SDS011;27869;51.442;7.540;2023-08-08T05:41:19;11.57;;;3.10;;
42200;SDS011;27869;51.442;7.540;2023-08-08T05:43:47;16.15;;;3.38;;
42200;SDS011;27869;51.442;7.540;2023-08-08T05:46:14;13.10;;;3.40;;
42200;SDS011;27869;51.442;7.540;2023-08-08T05:48:41;11.63;;;3.38;;
42200;SDS011;27869;51.442;7.540;2023-08-08T05:51:08;13.20;;;3.80;;
42200;SDS011;27869;51.442;7.540;2023-08-08T05:53:34;16.30;;;4.05;;
42200;SDS011;27869;51.442;7.540;2023-08-08T05:56:03;13.40;;;3.72;;
42200;SDS011;27869;51.442;7.540;2023-08-08T05:58:30;12.82;;;4.10;;
42200;SDS011;27869;51.442;7.540;2023-08-08T06:00:58;19.17;;;4.32;;
42200;SDS011;27869;51.442;7.540;2023-08-08T06:03:26;14.38;;;4.15;;
42200;SDS011;27869;51.442;7.540;2023-08-08T06:05:53;15.88;;;4.15;;
42200;SDS011;27869;51.442;7.540;2023-08-08T06:08:20;14.95;;;4.35;;
42200;SDS011;27869;51.442;7.540;2023-08-08T06:10:46;17.52;;;4.15;;
42200;SDS011;27869;51.442;7.540;2023-08-08T06:13:13;16.67;;;4.20;;
42200;SDS011;27869;51.442;7.540;2023-08-08T06:15:40;13.15;;;4.25;;
42200;SDS011;27869;51.442;7.540;2023-08-08T06:18:08;17.52;;;4.25;;
42200;SDS011;27869;51.442;7.540;2023-08-08T06:20:35;15.90;;;5.00;;
42200;SDS011;27869;51.442;7.540;2023-08-08T06:23:02;15.98;;;4.97;;
42200;SDS011;27869;51.442;7.540;2023-08-08T06:25:29;12.75;;;3.97;;
42200;SDS011;27869;51.442;7.540;2023-08-08T06:27:56;13.52;;;4.65;;
42200;SDS011;27869;51.442;7.540;2023-08-08T06:30:23;11.80;;;3.95;;
42200;SDS011;27869;51.442;7.540;2023-08-08T06:32:50;13.63;;;4.13;;
42200;SDS011;27869;51.442;7.540;2023-08-08T06:35:18;14.13;;;4.38;;
42200;SDS011;27869;51.442;7.540;2023-08-08T06:37:45;12.98;;;4.18;;
42200;SDS011;27869;51.442;7.540;2023-08-08T06:40:12;15.85;;;4.03;;
42200;SDS011;27869;51.442;7.540;2023-08-08T06:42:39;16.30;;;4.47;;
42200;SDS011;27869;51.442;7.540;2023-08-08T06:45:06;14.15;;;4.15;;
42200;SDS011;27869;51.442;7.540;2023-08-08T06:47:34;14.35;;;4.20;;
42200;SDS011;27869;51.442;7.540;2023-08-08T06:50:01;12.82;;;4.35;;
42200;SDS011;27869;51.442;7.540;2023-08-08T06:52:30;15.13;;;4.10;;
42200;SDS011;27869;51.442;7.540;2023-08-08T06:54:57;17.35;;;4.60;;
42200;SDS011;27869;51.442;7.540;2023-08-08T06:57:23;18.73;;;4.35;;
42200;SDS011;27869;51.442;7.540;2023-08-08T06:59:50;14.65;;;3.72;;
42200;SDS011;27869;51.442;7.540;2023-08-08T07:02:18;14.85;;;4.43;;
42200;SDS011;27869;51.442;7.540;2023-08-08T07:04:46;15.02;;;4.10;;
42200;SDS011;27869;51.442;7.540;2023-08-08T07:07:12;14.88;;;4.20;;
42200;SDS011;27869;51.442;7.540;2023-08-08T07:09:41;16.73;;;4.70;;
42200;SDS011;27869;51.442;7.540;2023-08-08T07:12:08;12.13;;;3.90;;
42200;SDS011;27869;51.442;7.540;2023-08-08T07:14:35;15.80;;;4.10;;
42200;SDS011;27869;51.442;7.540;2023-08-08T07:17:02;14.07;;;4.53;;
42200;SDS011;27869;51.442;7.540;2023-08-08T07:19:30;13.07;;;4.30;;
42200;SDS011;27869;51.442;7.540;2023-08-08T07:21:56;15.55;;;4.47;;
42200;SDS011;27869;51.442;7.540;2023-08-08T07:24:23;14.00;;;4.22;;
42200;SDS011;27869;51.442;7.540;2023-08-08T07:26:54;17.25;;;5.55;;
42200;SDS011;27869;51.442;7.540;2023-08-08T07:29:22;14.18;;;3.95;;
42200;SDS011;27869;51.442;7.540;2023-08-08T07:31:49;14.15;;;4.18;;
42200;SDS011;27869;51.442;7.540;2023-08-08T07:34:17;15.73;;;4.13;;
42200;SDS011;27869;51.442;7.540;2023-08-08T07:36:45;18.00;;;3.67;;
42200;SDS011;27869;51.442;7.540;2023-08-08T07:39:12;15.48;;;3.72;;
42200;SDS011;27869;51.442;7.540;2023-08-08T07:41:40;14.30;;;3.72;;
42200;SDS011;27869;51.442;7.540;2023-08-08T07:44:08;14.85;;;4.38;;
42200;SDS011;27869;51.442;7.540;2023-08-08T07:46:35;14.15;;;3.60;;
42200;SDS011;27869;51.442;7.540;2023-08-08T07:49:02;14.60;;;3.80;;
42200;SDS011;27869;51.442;7.540;2023-08-08T07:51:30;13.07;;;3.70;;
42200;SDS011;27869;51.442;7.540;2023-08-08T07:53:58;14.18;;;3.58;;
42200;SDS011;27869;51.442;7.540;2023-08-08T07:56:25;16.27;;;3.80;;
42200;SDS011;27869;51.442;7.540;2023-08-08T07:58:52;14.38;;;3.35;;
42200;SDS011;27869;51.442;7.540;2023-08-08T08:01:20;12.63;;;3.20;;
42200;SDS011;27869;51.442;7.540;2023-08-08T08:03:48;15.10;;;3.80;;
42200;SDS011;27869;51.442;7.540;2023-08-08T08:06:14;13.13;;;3.58;;
42200;SDS011;27869;51.442;7.540;2023-08-08T08:08:42;14.73;;;3.42;;
42200;SDS011;27869;51.442;7.540;2023-08-08T08:11:09;10.80;;;3.20;;
42200;SDS011;27869;51.442;7.540;2023-08-08T08:13:36;14.23;;;3.00;;
42200;SDS011;27869;51.442;7.540;2023-08-08T08:16:03;11.45;;;3.28;;
42200;SDS011;27869;51.442;7.540;2023-08-08T08:18:31;14.95;;;2.90;;
42200;SDS011;27869;51.442;7.540;2023-08-08T08:20:58;11.88;;;3.00;;
42200;SDS011;27869;51.442;7.540;2023-08-08T08:23:26;13.93;;;2.95;;
42200;SDS011;27869;51.442;7.540;2023-08-08T08:25:53;12.90;;;2.58;;
42200;SDS011;27869;51.442;7.540;2023-08-08T08:28:20;15.38;;;2.95;;
42200;SDS011;27869;51.442;7.540;2023-08-08T08:30:47;11.73;;;2.20;;
42200;SDS011;27869;51.442;7.540;2023-08-08T08:33:14;10.13;;;2.60;;
42200;SDS011;27869;51.442;7.540;2023-08-08T08:35:42;8.15;;;2.17;;
42200;SDS011;27869;51.442;7.540;2023-08-08T08:38:10;11.15;;;2.15;;
42200;SDS011;27869;51.442;7.540;2023-08-08T08:40:38;11.48;;;2.20;;
42200;SDS011;27869;51.442;7.540;2023-08-08T08:43:09;7.63;;;2.20;;
42200;SDS011;27869;51.442;7.540;2023-08-08T08:45:37;8.82;;;2.00;;
42200;SDS011;27869;51.442;7.540;2023-08-08T08:48:05;8.48;;;2.03;;
42200;SDS011;27869;51.442;7.540;2023-08-08T08:50:34;7.55;;;1.70;;
42200;SDS011;27869;51.442;7.540;2023-08-08T08:53:03;6.47;;;1.95;;
42200;SDS011;27869;51.442;7.540;2023-08-08T08:55:31;7.43;;;1.85;;
42200;SDS011;27869;51.442;7.540;2023-08-08T08:57:58;5.65;;;1.58;;
42200;SDS011;27869;51.442;7.540;2023-08-08T09:00:25;9.52;;;1.92;;
42200;SDS011;27869;51.442;7.540;2023-08-08T09:02:52;8.07;;;1.80;;
42200;SDS011;27869;51.442;7.540;2023-08-08T09:05:20;8.88;;;1.80;;
42200;SDS011;27869;51.442;7.540;2023-08-08T09:07:48;9.23;;;1.70;;
42200;SDS011;27869;51.442;7.540;2023-08-08T09:10:18;6.80;;;1.85;;
42200;SDS011;27869;51.442;7.540;2023-08-08T09:12:45;6.85;;;1.70;;
42200;SDS011;27869;51.442;7.540;2023-08-08T09:15:13;8.93;;;1.63;;
42200;SDS011;27869;51.442;7.540;2023-08-08T09:17:40;8.77;;;1.95;;
42200;SDS011;27869;51.442;7.540;2023-08-08T09:20:09;5.85;;;1.48;;
42200;SDS011;27869;51.442;7.540;2023-08-08T09:22:37;7.70;;;1.73;;
42200;SDS011;27869;51.442;7.540;2023-08-08T09:25:04;8.18;;;1.27;;
42200;SDS011;27869;51.442;7.540;2023-08-08T09:27:34;9.73;;;1.58;;
42200;SDS011;27869;51.442;7.540;2023-08-08T09:30:01;7.82;;;1.48;;
42200;SDS011;27869;51.442;7.540;2023-08-08T09:32:29;8.85;;;1.70;;
42200;SDS011;27869;51.442;7.540;2023-08-08T09:34:56;6.30;;;1.42;;
42200;SDS011;27869;51.442;7.540;2023-08-08T09:37:23;7.57;;;1.70;;
42200;SDS011;27869;51.442;7.540;2023-08-08T09:39:57;7.90;;;1.50;;
42200;SDS011;27869;51.442;7.540;2023-08-08T09:42:25;6.22;;;1.42;;
42200;SDS011;27869;51.442;7.540;2023-08-08T09:44:54;8.10;;;1.83;;
42200;SDS011;27869;51.442;7.540;2023-08-08T09:47:22;8.30;;;1.60;;
42200;SDS011;27869;51.442;7.540;2023-08-08T09:49:50;6.30;;;1.40;;
42200;SDS011;27869;51.442;7.540;2023-08-08T09:52:17;8.23;;;1.50;;
42200;SDS011;27869;51.442;7.540;2023-08-08T09:54:45;11.18;;;1.60;;
42200;SDS011;27869;51.442;7.540;2023-08-08T09:57:14;8.77;;;1.83;;
42200;SDS011;27869;51.442;7.540;2023-08-08T09:59:42;7.30;;;1.30;;
42200;SDS011;27869;51.442;7.540;2023-08-08T10:02:13;9.07;;;1.45;;
42200;SDS011;27869;51.442;7.540;2023-08-08T10:04:41;6.55;;;1.40;;
42200;SDS011;27869;51.442;7.540;2023-08-08T10:07:08;5.85;;;1.33;;
42200;SDS011;27869;51.442;7.540;2023-08-08T10:09:35;7.38;;;1.75;;
42200;SDS011;27869;51.442;7.540;2023-08-08T10:12:02;7.63;;;1.50;;
42200;SDS011;27869;51.442;7.540;2023-08-08T10:14:30;5.93;;;1.55;;
42200;SDS011;27869;51.442;7.540;2023-08-08T10:16:59;5.88;;;1.60;;
42200;SDS011;27869;51.442;7.540;2023-08-08T10:19:30;9.07;;;1.70;;
42200;SDS011;27869;51.442;7.540;2023-08-08T10:21:58;7.47;;;1.48;;
42200;SDS011;27869;51.442;7.540;2023-08-08T10:24:32;6.72;;;1.67;;
42200;SDS011;27869;51.442;7.540;2023-08-08T10:27:00;8.50;;;2.60;;
42200;SDS011;27869;51.442;7.540;2023-08-08T10:29:28;7.35;;;1.45;;
42200;SDS011;27869;51.442;7.540;2023-08-08T10:31:58;8.98;;;1.50;;
42200;SDS011;27869;51.442;7.540;2023-08-08T10:34:26;7.10;;;1.58;;
42200;SDS011;27869;51.442;7.540;2023-08-08T10:37:05;8.70;;;1.70;;
42200;SDS011;27869;51.442;7.540;2023-08-08T10:39:35;5.75;;;1.65;;
42200;SDS011;27869;51.442;7.540;2023-08-08T10:42:03;9.85;;;1.90;;
42200;SDS011;27869;51.442;7.540;2023-08-08T10:44:31;11.13;;;1.83;;
42200;SDS011;27869;51.442;7.540;2023-08-08T10:46:59;10.25;;;1.70;;
42200;SDS011;27869;51.442;7.540;2023-08-08T10:51:53;8.65;;;1.67;;
42200;SDS011;27869;51.442;7.540;2023-08-08T10:54:21;9.73;;;1.85;;
42200;SDS011;27869;51.442;7.540;2023-08-08T10:56:53;8.90;;;1.95;;
42200;SDS011;27869;51.442;7.540;2023-08-08T10:59:21;7.20;;;1.58;;
42200;SDS011;27869;51.442;7.540;2023-08-08T11:01:51;8.07;;;1.73;;
42200;SDS011;27869;51.442;7.540;2023-08-08T11:04:19;9.35;;;1.92;;
42200;SDS011;27869;51.442;7.540;2023-08-08T11:06:48;7.78;;;1.83;;
42200;SDS011;27869;51.442;7.540;2023-08-08T11:09:16;11.57;;;1.85;;
42200;SDS011;27869;51.442;7.540;2023-08-08T11:11:44;5.95;;;1.52;;
42200;SDS011;27869;51.442;7.540;2023-08-08T11:14:12;10.88;;;2.20;;
42200;SDS011;27869;51.442;7.540;2023-08-08T11:16:40;5.85;;;1.60;;
42200;SDS011;27869;51.442;7.540;2023-08-08T11:19:08;8.70;;;1.60;;
42200;SDS011;27869;51.442;7.540;2023-08-08T11:21:35;7.53;;;1.63;;
42200;SDS011;27869;51.442;7.540;2023-08-08T11:24:03;8.15;;;1.50;;
42200;SDS011;27869;51.442;7.540;2023-08-08T11:26:31;11.88;;;2.05;;
42200;SDS011;27869;51.442;7.540;2023-08-08T11:29:00;8.70;;;1.88;;
42200;SDS011;27869;51.442;7.540;2023-08-08T11:31:28;9.77;;;1.77;;
42200;SDS011;27869;51.442;7.540;2023-08-08T11:33:56;7.32;;;1.65;;
42200;SDS011;27869;51.442;7.540;2023-08-08T11:36:24;7.45;;;1.50;;
42200;SDS011;27869;51.442;7.540;2023-08-08T11:38:52;7.43;;;1.60;;
42200;SDS011;27869;51.442;7.540;2023-08-08T11:41:21;9.52;;;1.67;;
42200;SDS011;27869;51.442;7.540;2023-08-08T11:48:46;10.50;;;1.90;;
42200;SDS011;27869;51.442;7.540;2023-08-08T11:51:14;7.65;;;1.60;;
42200;SDS011;27869;51.442;7.540;2023-08-08T11:53:47;8.57;;;1.52;;
42200;SDS011;27869;51.442;7.540;2023-08-08T11:56:16;12.35;;;3.38;;
42200;SDS011;27869;51.442;7.540;2023-08-08T11:58:43;5.40;;;1.50;;
42200;SDS011;27869;51.442;7.540;2023-08-08T12:01:10;7.90;;;1.52;;
42200;SDS011;27869;51.442;7.540;2023-08-08T12:03:40;9.02;;;1.80;;
42200;SDS011;27869;51.442;7.540;2023-08-08T12:06:13;6.95;;;1.35;;
42200;SDS011;27869;51.442;7.540;2023-08-08T12:08:41;9.25;;;1.60;;
42200;SDS011;27869;51.442;7.540;2023-08-08T12:11:09;7.68;;;1.23;;
42200;SDS011;27869;51.442;7.540;2023-08-08T12:13:37;8.60;;;1.70;;
42200;SDS011;27869;51.442;7.540;2023-08-08T12:16:06;7.38;;;1.70;;
42200;SDS011;27869;51.442;7.540;2023-08-08T12:18:34;6.38;;;1.55;;
42200;SDS011;27869;51.442;7.540;2023-08-08T12:21:04;8.73;;;1.70;;
42200;SDS011;27869;51.442;7.540;2023-08-08T12:23:31;10.60;;;2.03;;
42200;SDS011;27869;51.442;7.540;2023-08-08T12:25:59;7.95;;;1.60;;
42200;SDS011;27869;51.442;7.540;2023-08-08T12:28:28;8.80;;;1.65;;
42200;SDS011;27869;51.442;7.540;2023-08-08T12:30:55;6.97;;;1.60;;
42200;SDS011;27869;51.442;7.540;2023-08-08T12:33:22;8.88;;;1.90;;
42200;SDS011;27869;51.442;7.540;2023-08-08T12:35:48;12.93;;;2.15;;
42200;SDS011;27869;51.442;7.540;2023-08-08T12:38:17;11.32;;;2.05;;
42200;SDS011;27869;51.442;7.540;2023-08-08T12:40:44;9.25;;;1.98;;
42200;SDS011;27869;51.442;7.540;2023-08-08T12:43:12;14.85;;;1.98;;
42200;SDS011;27869;51.442;7.540;2023-08-08T12:45:42;7.70;;;1.98;;
42200;SDS011;27869;51.442;7.540;2023-08-08T12:48:09;5.70;;;1.55;;
42200;SDS011;27869;51.442;7.540;2023-08-08T12:50:36;9.38;;;1.92;;
42200;SDS011;27869;51.442;7.540;2023-08-08T12:53:03;8.35;;;1.80;;
42200;SDS011;27869;51.442;7.540;2023-08-08T12:55:31;9.35;;;2.00;;
42200;SDS011;27869;51.442;7.540;2023-08-08T12:57:58;11.50;;;2.10;;
42200;SDS011;27869;51.442;7.540;2023-08-08T13:00:25;8.90;;;1.52;;
42200;SDS011;27869;51.442;7.540;2023-08-08T13:02:52;9.23;;;1.80;;
42200;SDS011;27869;51.442;7.540;2023-08-08T13:05:19;10.48;;;1.70;;
42200;SDS011;27869;51.442;7.540;2023-08-08T13:07:46;10.93;;;1.75;;
42200;SDS011;27869;51.442;7.540;2023-08-08T13:10:13;8.85;;;1.83;;
42200;SDS011;27869;51.442;7.540;2023-08-08T13:12:41;10.10;;;2.00;;
42200;SDS011;27869;51.442;7.540;2023-08-08T13:15:08;9.10;;;1.73;;
42200;SDS011;27869;51.442;7.540;2023-08-08T13:17:35;11.68;;;1.92;;
42200;SDS011;27869;51.442;7.540;2023-08-08T13:20:02;7.70;;;1.83;;
42200;SDS011;27869;51.442;7.540;2023-08-08T13:22:30;8.95;;;1.90;;
42200;SDS011;27869;51.442;7.540;2023-08-08T13:24:57;9.40;;;2.00;;
42200;SDS011;27869;51.442;7.540;2023-08-08T13:27:24;7.75;;;1.85;;
42200;SDS011;27869;51.442;7.540;2023-08-08T13:29:52;9.57;;;1.70;;
42200;SDS011;27869;51.442;7.540;2023-08-08T13:32:19;6.88;;;1.70;;
42200;SDS011;27869;51.442;7.540;2023-08-08T13:34:46;7.07;;;1.85;;
42200;SDS011;27869;51.442;7.540;2023-08-08T13:37:13;7.68;;;1.70;;
42200;SDS011;27869;51.442;7.540;2023-08-08T13:39:40;9.75;;;1.83;;
42200;SDS011;27869;51.442;7.540;2023-08-08T13:42:07;8.63;;;1.83;;
42200;SDS011;27869;51.442;7.540;2023-08-08T13:44:35;8.95;;;1.73;;
42200;SDS011;27869;51.442;7.540;2023-08-08T13:47:03;7.78;;;2.03;;
42200;SDS011;27869;51.442;7.540;2023-08-08T13:49:30;6.75;;;1.80;;
42200;SDS011;27869;51.442;7.540;2023-08-08T13:51:57;10.65;;;1.90;;
42200;SDS011;27869;51.442;7.540;2023-08-08T13:54:23;10.00;;;2.22;;
42200;SDS011;27869;51.442;7.540;2023-08-08T13:56:50;8.25;;;1.73;;
42200;SDS011;27869;51.442;7.540;2023-08-08T13:59:17;8.68;;;1.85;;
42200;SDS011;27869;51.442;7.540;2023-08-08T14:01:44;9.00;;;2.03;;
42200;SDS011;27869;51.442;7.540;2023-08-08T14:04:12;12.15;;;1.90;;
42200;SDS011;27869;51.442;7.540;2023-08-08T14:06:39;9.13;;;1.75;;
42200;SDS011;27869;51.442;7.540;2023-08-08T14:09:06;9.25;;;1.80;;
42200;SDS011;27869;51.442;7.540;2023-08-08T14:11:33;9.70;;;1.70;;
42200;SDS011;27869;51.442;7.540;2023-08-08T14:14:00;7.97;;;1.73;;
42200;SDS011;27869;51.442;7.540;2023-08-08T14:16:26;9.38;;;1.80;;
42200;SDS011;27869;51.442;7.540;2023-08-08T14:18:53;6.53;;;1.42;;
42200;SDS011;27869;51.442;7.540;2023-08-08T14:21:21;7.07;;;1.30;;
42200;SDS011;27869;51.442;7.540;2023-08-08T14:23:48;8.38;;;1.50;;
42200;SDS011;27869;51.442;7.540;2023-08-08T14:26:15;7.47;;;1.48;;
42200;SDS011;27869;51.442;7.540;2023-08-08T14:28:42;6.80;;;1.63;;
42200;SDS011;27869;51.442;7.540;2023-08-08T14:31:09;7.53;;;1.73;;
42200;SDS011;27869;51.442;7.540;2023-08-08T14:33:36;6.63;;;1.52;;
42200;SDS011;27869;51.442;7.540;2023-08-08T14:36:03;7.18;;;1.55;;
42200;SDS011;27869;51.442;7.540;2023-08-08T14:38:34;8.20;;;1.73;;
42200;SDS011;27869;51.442;7.540;2023-08-08T14:41:02;10.35;;;1.52;;
42200;SDS011;27869;51.442;7.540;2023-08-08T14:43:29;6.55;;;1.60;;
42200;SDS011;27869;51.442;7.540;2023-08-08T14:45:56;10.38;;;2.20;;
42200;SDS011;27869;51.442;7.540;2023-08-08T14:48:22;8.23;;;1.90;;
42200;SDS011;27869;51.442;7.540;2023-08-08T14:50:49;7.47;;;1.73;;
42200;SDS011;27869;51.442;7.540;2023-08-08T14:53:16;8.75;;;1.70;;